createdAt,value
2023-01-13T00:00:30.974Z,14.07
2023-01-13T00:02:58.607Z,13.40
2023-01-13T00:05:26.882Z,12.80
2023-01-13T00:07:54.562Z,10.53
2023-01-13T00:10:22.395Z,12.17
2023-01-13T00:12:50.273Z,9.50
2023-01-13T00:15:17.912Z,13.57
2023-01-13T00:17:45.385Z,8.80
2023-01-13T00:20:13.456Z,9.47
2023-01-13T00:22:41.153Z,8.77
2023-01-13T00:25:08.900Z,11.00
2023-01-13T00:27:36.348Z,13.13
2023-01-13T00:30:03.999Z,11.10
2023-01-13T00:32:31.606Z,8.93
2023-01-13T00:34:59.253Z,9.73
2023-01-13T00:37:27.298Z,9.27
2023-01-13T00:39:54.789Z,10.27
2023-01-13T00:42:42.031Z,10.37
2023-01-13T00:45:09.651Z,10.37
2023-01-13T00:47:37.085Z,9.27
2023-01-13T00:50:04.675Z,10.87
2023-01-13T00:52:32.990Z,11.70
2023-01-13T00:55:01.044Z,10.53
2023-01-13T00:57:28.638Z,12.13
2023-01-13T00:59:56.984Z,9.50
2023-01-13T01:02:24.468Z,11.20
2023-01-13T01:04:52.562Z,9.87
2023-01-13T01:07:20.252Z,8.00
2023-01-13T01:09:47.790Z,8.90
2023-01-13T01:12:15.221Z,8.23
2023-01-13T01:14:43.012Z,8.73
2023-01-13T01:17:11.038Z,9.63
2023-01-13T01:19:38.950Z,10.97
2023-01-13T01:22:06.715Z,15.53
2023-01-13T01:24:34.441Z,14.30
2023-01-13T01:27:01.919Z,11.13
2023-01-13T01:29:29.675Z,12.30
2023-01-13T01:31:59.626Z,10.63
2023-01-13T01:34:27.485Z,12.63
2023-01-13T01:36:55.282Z,10.10
2023-01-13T01:39:22.947Z,10.90
2023-01-13T01:42:10.222Z,8.40
2023-01-13T01:44:57.516Z,9.60
2023-01-13T01:47:25.754Z,9.27
2023-01-13T01:49:53.771Z,8.03
2023-01-13T01:52:41.060Z,9.27
2023-01-13T01:55:12.527Z,8.90
2023-01-13T01:57:42.973Z,11.10
2023-01-13T02:00:11.575Z,10.20
2023-01-13T02:02:39.293Z,10.63
2023-01-13T02:05:07.254Z,9.80
2023-01-13T02:07:35.749Z,9.20
2023-01-13T02:10:05.422Z,10.67
2023-01-13T02:12:32.995Z,8.87
2023-01-13T02:15:02.097Z,9.57
2023-01-13T02:17:49.404Z,10.77
2023-01-13T02:20:27.214Z,10.13
2023-01-13T02:23:34.335Z,10.13
2023-01-13T02:26:21.744Z,12.27
2023-01-13T02:29:29.124Z,10.00
2023-01-13T02:32:00.510Z,8.33
2023-01-13T02:34:36.377Z,9.23
2023-01-13T02:37:08.469Z,10.03
2023-01-13T02:39:39.382Z,9.63
2023-01-13T02:42:32.488Z,8.13
2023-01-13T02:45:08.077Z,11.87
2023-01-13T02:47:37.981Z,7.93
2023-01-13T02:50:08.437Z,8.73
2023-01-13T02:52:38.853Z,9.67
2023-01-13T02:55:08.703Z,9.63
2023-01-13T02:57:37.008Z,10.60
2023-01-13T03:00:05.763Z,9.03
2023-01-13T03:02:33.499Z,8.70
2023-01-13T03:05:01.402Z,8.77
2023-01-13T03:07:46.090Z,11.10
2023-01-13T03:10:25.350Z,10.33
2023-01-13T03:13:12.588Z,8.63
2023-01-13T03:15:59.883Z,7.83
2023-01-13T03:18:47.103Z,8.90
2023-01-13T03:21:34.766Z,8.33
2023-01-13T03:24:07.999Z,6.73
2023-01-13T03:26:54.894Z,8.87
2023-01-13T03:29:42.176Z,6.33
2023-01-13T03:32:13.440Z,8.30
2023-01-13T03:34:46.139Z,7.57
2023-01-13T03:37:15.027Z,6.73
2023-01-13T03:39:45.178Z,6.87
2023-01-13T03:42:15.832Z,6.30
2023-01-13T03:44:47.054Z,7.70
2023-01-13T03:47:34.296Z,5.97
2023-01-13T03:50:05.610Z,6.90
2023-01-13T03:52:36.143Z,6.27
2023-01-13T03:55:07.169Z,8.40
2023-01-13T03:57:36.871Z,5.47
2023-01-13T04:00:05.856Z,5.83
2023-01-13T04:02:53.194Z,6.53
2023-01-13T04:05:21.181Z,5.50
2023-01-13T04:08:08.506Z,7.03
2023-01-13T04:10:39.338Z,6.37
2023-01-13T04:13:09.001Z,6.43
2023-01-13T04:15:39.524Z,4.73
2023-01-13T04:18:24.712Z,6.07
2023-01-13T04:20:53.036Z,5.35
2023-01-13T04:23:21.593Z,5.50
2023-01-13T04:25:49.846Z,5.90
2023-01-13T04:28:17.805Z,10.07
2023-01-13T04:30:45.932Z,6.40
2023-01-13T04:33:13.748Z,6.50
2023-01-13T04:35:41.217Z,5.83
2023-01-13T04:38:11.756Z,6.23
2023-01-13T04:40:39.404Z,5.80
2023-01-13T04:43:06.811Z,4.80
2023-01-13T04:45:34.589Z,5.03
2023-01-13T04:48:02.125Z,4.83
2023-01-13T04:50:29.772Z,6.27
2023-01-13T04:52:57.445Z,5.23
2023-01-13T04:55:25.463Z,6.57
2023-01-13T04:57:52.875Z,5.27
2023-01-13T05:00:21.798Z,5.60
2023-01-13T05:02:51.081Z,7.50
2023-01-13T05:05:18.926Z,6.97
2023-01-13T05:07:46.387Z,6.13
2023-01-13T05:10:13.963Z,6.77
2023-01-13T05:13:01.960Z,5.07
2023-01-13T05:15:49.219Z,5.03
2023-01-13T05:18:17.413Z,4.73
2023-01-13T05:20:44.851Z,5.53
2023-01-13T05:23:32.155Z,5.73
2023-01-13T05:25:59.557Z,7.93
2023-01-13T05:28:27.018Z,5.37
2023-01-13T05:30:54.651Z,5.23
2023-01-13T05:33:22.148Z,7.47
2023-01-13T05:35:49.731Z,5.00
2023-01-13T05:38:18.179Z,5.80
2023-01-13T05:41:05.654Z,4.70
2023-01-13T05:43:34.928Z,5.10
2023-01-13T05:46:06.980Z,5.63
2023-01-13T05:48:43.415Z,5.00
2023-01-13T05:51:11.863Z,5.30
2023-01-13T05:53:41.131Z,5.43
2023-01-13T05:56:09.346Z,4.57
2023-01-13T05:58:37.168Z,5.27
2023-01-13T06:01:06.300Z,4.93
2023-01-13T06:03:33.819Z,6.60
2023-01-13T06:06:02.295Z,5.37
2023-01-13T06:08:29.993Z,4.80
2023-01-13T06:10:57.657Z,7.83
2023-01-13T06:13:26.505Z,4.50
2023-01-13T06:15:57.954Z,4.47
2023-01-13T06:18:25.855Z,4.27
2023-01-13T06:20:53.362Z,5.73
2023-01-13T06:23:20.994Z,5.77
2023-01-13T06:25:53.238Z,4.83
2023-01-13T06:28:21.005Z,3.43
2023-01-13T06:30:50.375Z,3.30
2023-01-13T06:33:21.066Z,3.57
2023-01-13T06:35:52.893Z,3.10
2023-01-13T06:38:21.458Z,2.67
2023-01-13T06:40:49.248Z,4.93
2023-01-13T06:43:17.508Z,3.17
2023-01-13T06:45:49.387Z,5.30
2023-01-13T06:48:18.423Z,3.97
2023-01-13T06:50:45.884Z,5.73
2023-01-13T06:53:13.505Z,5.83
2023-01-13T06:55:41.307Z,5.67
2023-01-13T06:58:08.899Z,4.40
2023-01-13T07:00:37.386Z,5.00
2023-01-13T07:03:24.845Z,5.40
2023-01-13T07:05:54.237Z,3.80
2023-01-13T07:08:22.051Z,5.07
2023-01-13T07:10:49.559Z,4.73
2023-01-13T07:13:36.993Z,5.47
2023-01-13T07:16:06.270Z,7.50
2023-01-13T07:18:34.754Z,8.90
2023-01-13T07:21:03.407Z,5.73
2023-01-13T07:23:32.617Z,5.97
2023-01-13T07:26:01.087Z,7.47
2023-01-13T07:28:30.213Z,6.27
2023-01-13T07:30:58.800Z,5.80
2023-01-13T07:33:26.367Z,5.87
2023-01-13T07:35:58.275Z,7.50
2023-01-13T07:38:28.227Z,6.77
2023-01-13T07:40:56.473Z,7.23
2023-01-13T07:43:39.873Z,7.93
2023-01-13T07:46:07.570Z,7.57
2023-01-13T07:48:35.333Z,6.63
2023-01-13T07:51:04.799Z,8.40
2023-01-13T07:53:32.325Z,16.27
2023-01-13T07:56:00.289Z,8.90
2023-01-13T07:58:28.445Z,8.47
2023-01-13T08:00:56.846Z,9.57
2023-01-13T08:03:25.232Z,9.03
2023-01-13T08:05:52.745Z,9.90
2023-01-13T08:08:20.325Z,7.60
2023-01-13T08:10:48.077Z,6.97
2023-01-13T08:13:17.932Z,8.37
2023-01-13T08:15:46.177Z,11.57
2023-01-13T08:18:14.030Z,8.87
2023-01-13T08:20:41.477Z,8.97
2023-01-13T08:23:09.037Z,8.17
2023-01-13T08:25:36.513Z,9.90
2023-01-13T08:28:04.376Z,9.43
2023-01-13T08:30:32.104Z,10.80
2023-01-13T08:32:59.685Z,9.53
2023-01-13T08:35:27.244Z,10.60
2023-01-13T08:37:55.296Z,10.47
2023-01-13T08:40:22.775Z,9.27
2023-01-13T08:42:51.255Z,9.33
2023-01-13T08:45:18.973Z,7.47
2023-01-13T08:47:46.339Z,7.33
2023-01-13T08:50:14.218Z,6.83
2023-01-13T08:52:42.222Z,8.13
2023-01-13T08:55:09.945Z,9.30
2023-01-13T08:57:37.723Z,6.87
2023-01-13T09:00:06.641Z,8.17
2023-01-13T09:02:34.281Z,8.03
2023-01-13T09:05:04.076Z,7.57
2023-01-13T09:07:31.847Z,8.67
2023-01-13T09:09:59.475Z,8.57
2023-01-13T09:12:46.901Z,8.70
2023-01-13T09:15:14.871Z,9.27
2023-01-13T09:17:43.070Z,8.60
2023-01-13T09:20:11.396Z,9.03
2023-01-13T09:22:40.820Z,8.17
2023-01-13T09:25:08.516Z,9.07
2023-01-13T09:27:35.992Z,11.13
2023-01-13T09:30:04.039Z,8.13
2023-01-13T09:32:32.033Z,8.00
2023-01-13T09:35:00.658Z,10.13
2023-01-13T09:37:29.788Z,9.50
2023-01-13T09:39:57.229Z,9.07
2023-01-13T09:42:49.308Z,11.33
2023-01-13T09:45:21.415Z,12.33
2023-01-13T09:47:55.895Z,10.87
2023-01-13T09:50:30.898Z,9.37
2023-01-13T09:52:58.808Z,8.93
2023-01-13T09:55:46.427Z,6.17
2023-01-13T09:58:16.821Z,5.23
2023-01-13T10:00:48.167Z,5.77
2023-01-13T10:03:21.177Z,6.80
2023-01-13T10:05:52.297Z,6.63
2023-01-13T10:08:23.961Z,3.00
2023-01-13T10:10:55.368Z,4.70
2023-01-13T10:13:42.987Z,3.50
2023-01-13T10:16:30.353Z,5.50
2023-01-13T10:19:17.944Z,4.90
2023-01-13T10:21:57.735Z,6.60
2023-01-13T10:24:35.321Z,7.03
2023-01-13T10:27:18.101Z,7.27
2023-01-13T10:29:45.525Z,9.57
2023-01-13T10:32:13.043Z,10.10
2023-01-13T10:34:51.856Z,8.17
2023-01-13T10:37:23.998Z,7.73
2023-01-13T10:39:55.093Z,7.13
2023-01-13T10:42:24.442Z,8.20
2023-01-13T10:45:11.968Z,11.37
2023-01-13T10:47:39.350Z,6.40
2023-01-13T10:50:25.257Z,7.43
2023-01-13T10:55:26.352Z,8.03
2023-01-13T10:58:16.603Z,5.70
2023-01-13T11:00:44.215Z,8.17
2023-01-13T11:03:28.595Z,6.90
2023-01-13T11:05:58.578Z,5.27
2023-01-13T11:08:28.361Z,6.60
2023-01-13T11:10:58.209Z,7.30
2023-01-13T11:13:31.906Z,7.83
2023-01-13T11:16:20.097Z,6.03
2023-01-13T11:19:02.399Z,4.27
2023-01-13T11:21:33.060Z,5.43
2023-01-13T11:24:07.035Z,4.13
2023-01-13T11:26:42.011Z,2.70
2023-01-13T11:29:14.534Z,4.13
2023-01-13T11:31:46.192Z,2.77
2023-01-13T11:34:31.602Z,3.80
2023-01-13T11:37:01.071Z,2.58
2023-01-13T11:39:48.470Z,3.33
2023-01-13T11:42:21.752Z,3.27
2023-01-13T11:45:09.423Z,2.00
2023-01-13T11:47:37.376Z,3.60
2023-01-13T11:50:14.286Z,3.97
2023-01-13T11:53:02.040Z,5.13
2023-01-13T11:55:36.606Z,3.17
2023-01-13T11:58:23.855Z,8.25
2023-01-13T12:01:03.673Z,5.03
2023-01-13T12:03:51.112Z,4.00
2023-01-13T12:06:22.148Z,4.60
2023-01-13T12:08:55.151Z,5.53
2023-01-13T12:12:02.417Z,3.70
2023-01-13T12:14:49.832Z,6.90
2023-01-13T12:17:24.187Z,3.53
2023-01-13T12:19:51.932Z,4.20
2023-01-13T12:22:24.572Z,8.50
2023-01-13T12:24:56.818Z,5.10
2023-01-13T12:27:32.830Z,4.33
2023-01-13T12:30:03.482Z,5.50
2023-01-13T12:32:35.439Z,7.30
2023-01-13T12:35:12.356Z,5.23
2023-01-13T12:37:59.960Z,6.20
2023-01-13T12:40:48.473Z,6.57
2023-01-13T12:43:37.251Z,5.10
2023-01-13T12:46:24.640Z,6.40
2023-01-13T12:49:11.953Z,4.40
2023-01-13T12:52:00.339Z,5.80
2023-01-13T12:54:47.601Z,6.37
2023-01-13T12:57:22.014Z,5.87
2023-01-13T13:00:09.230Z,5.28
2023-01-13T13:02:38.004Z,7.83
2023-01-13T13:05:25.691Z,6.37
2023-01-13T13:07:54.306Z,5.33
2023-01-13T13:10:33.877Z,4.97
2023-01-13T13:13:18.394Z,8.27
2023-01-13T13:15:47.362Z,4.80
2023-01-13T13:18:35.082Z,6.83
2023-01-13T13:21:05.187Z,7.30
2023-01-13T13:23:52.873Z,8.77
2023-01-13T13:26:40.110Z,7.73
2023-01-13T13:29:27.440Z,6.23
2023-01-13T13:32:15.426Z,5.87
2023-01-13T13:35:02.741Z,5.70
2023-01-13T13:38:10.131Z,7.17
2023-01-13T13:41:02.821Z,8.13
2023-01-13T13:43:52.889Z,7.47
2023-01-13T13:46:45.013Z,7.33
2023-01-13T13:49:13.440Z,7.30
2023-01-13T13:52:01.486Z,7.13
2023-01-13T13:54:29.229Z,8.93
2023-01-13T13:56:58.126Z,17.87
2023-01-13T13:59:28.504Z,8.90
2023-01-13T14:02:02.196Z,9.50
2023-01-13T14:04:32.981Z,16.67
2023-01-13T14:07:05.130Z,8.03
2023-01-13T14:09:41.511Z,12.50
2023-01-13T14:12:16.782Z,11.53
2023-01-13T14:14:46.336Z,10.63
2023-01-13T14:17:24.240Z,8.30
2023-01-13T14:19:53.119Z,6.43
2023-01-13T14:22:22.033Z,7.77
2023-01-13T14:24:55.787Z,7.37
2023-01-13T14:27:24.923Z,9.50
2023-01-13T14:30:37.419Z,8.33
2023-01-13T14:33:06.086Z,10.30
2023-01-13T14:35:33.996Z,9.47
2023-01-13T14:38:04.628Z,10.50
2023-01-13T14:40:51.873Z,10.30
2023-01-13T14:43:21.467Z,9.60
2023-01-13T14:46:08.887Z,7.70
2023-01-13T14:48:36.763Z,8.53
2023-01-13T14:51:06.656Z,10.73
2023-01-13T14:53:50.358Z,9.10
2023-01-13T14:56:37.652Z,10.03
2023-01-13T14:59:25.170Z,7.50
2023-01-13T15:01:55.384Z,9.77
2023-01-13T15:04:26.162Z,8.70
2023-01-13T15:06:56.163Z,9.30
2023-01-13T15:09:26.268Z,13.53
2023-01-13T15:11:55.059Z,16.80
2023-01-13T15:14:26.260Z,10.67
2023-01-13T15:16:54.314Z,12.20
2023-01-13T15:19:23.131Z,13.77
2023-01-13T15:21:50.977Z,11.93
2023-01-13T15:24:18.615Z,11.67
2023-01-13T15:26:47.005Z,12.43
2023-01-13T15:29:15.655Z,10.43
2023-01-13T15:31:45.039Z,12.37
2023-01-13T15:34:15.750Z,13.43
2023-01-13T15:36:43.555Z,11.37
2023-01-13T15:39:12.721Z,17.57
2023-01-13T15:42:01.071Z,12.07
2023-01-13T15:44:48.491Z,16.27
2023-01-13T15:47:16.353Z,13.80
2023-01-13T15:49:45.105Z,12.73
2023-01-13T15:52:21.966Z,11.00
2023-01-13T15:54:50.015Z,8.80
2023-01-13T15:57:22.671Z,11.50
2023-01-13T15:59:50.251Z,10.43
2023-01-13T16:02:19.134Z,11.10
2023-01-13T16:04:46.928Z,12.67
2023-01-13T16:07:15.776Z,16.83
2023-01-13T16:09:43.458Z,12.13
2023-01-13T16:12:11.315Z,10.90
2023-01-13T16:14:39.115Z,12.87
2023-01-13T16:17:16.010Z,12.10
2023-01-13T16:19:43.696Z,13.77
2023-01-13T16:22:14.296Z,14.33
2023-01-13T16:24:42.779Z,14.67
2023-01-13T16:27:22.698Z,12.57
2023-01-13T16:29:52.220Z,9.60
2023-01-13T16:32:21.325Z,14.67
2023-01-13T16:34:49.013Z,12.37
2023-01-13T16:37:20.060Z,10.23
2023-01-13T16:39:47.983Z,9.40
2023-01-13T16:42:16.134Z,12.27
2023-01-13T16:44:44.323Z,13.27
2023-01-13T16:47:16.067Z,11.13
2023-01-13T16:49:44.242Z,9.40
2023-01-13T16:52:12.061Z,12.13
2023-01-13T16:54:40.232Z,14.80
2023-01-13T16:57:08.014Z,11.73
2023-01-13T16:59:35.518Z,12.83
2023-01-13T17:02:03.065Z,13.47
2023-01-13T17:04:31.470Z,12.10
2023-01-13T17:07:01.102Z,15.00
2023-01-13T17:09:29.273Z,12.37
2023-01-13T17:11:57.387Z,14.33
2023-01-13T17:14:25.607Z,12.53
2023-01-13T17:16:54.742Z,11.60
2023-01-13T17:19:26.007Z,13.93
2023-01-13T17:21:53.381Z,12.87
2023-01-13T17:24:20.974Z,14.33
2023-01-13T17:26:50.123Z,16.80
2023-01-13T17:29:20.391Z,15.73
2023-01-13T17:31:48.000Z,13.53
2023-01-13T17:34:15.623Z,12.73
2023-01-13T17:36:44.005Z,18.40
2023-01-13T17:39:16.373Z,14.60
2023-01-13T17:41:44.116Z,18.90
2023-01-13T17:44:16.363Z,13.10
2023-01-13T17:46:44.434Z,13.83
2023-01-13T17:49:12.807Z,15.93
2023-01-13T17:51:40.450Z,11.47
2023-01-13T17:54:12.629Z,15.13
2023-01-13T17:56:41.780Z,16.77
2023-01-13T17:59:10.624Z,14.57
2023-01-13T18:01:39.752Z,12.03
2023-01-13T18:04:07.961Z,15.60
2023-01-13T18:06:36.609Z,10.43
2023-01-13T18:09:04.778Z,13.47
2023-01-13T18:11:33.678Z,15.27
2023-01-13T18:14:01.594Z,12.93
2023-01-13T18:16:32.678Z,11.73
2023-01-13T18:19:21.004Z,9.13
2023-01-13T18:22:09.036Z,7.67
2023-01-13T18:24:56.584Z,9.23
2023-01-13T18:27:29.571Z,15.70
2023-01-13T18:30:01.337Z,9.57
2023-01-13T18:32:33.239Z,8.77
2023-01-13T18:35:07.085Z,10.00
2023-01-13T18:37:36.740Z,12.10
2023-01-13T18:40:05.601Z,15.23
2023-01-13T18:42:52.987Z,14.23
2023-01-13T18:45:22.027Z,16.30
2023-01-13T18:47:50.256Z,14.93
2023-01-13T18:50:21.872Z,11.63
2023-01-13T18:52:51.793Z,10.10
2023-01-13T18:55:22.591Z,13.33
2023-01-13T18:57:53.348Z,10.60
2023-01-13T19:00:22.032Z,14.23
2023-01-13T19:05:35.372Z,12.13
2023-01-13T19:08:03.735Z,13.93
2023-01-13T19:10:36.838Z,11.73
2023-01-13T19:13:04.963Z,11.40
2023-01-13T19:15:34.191Z,12.60
2023-01-13T19:18:02.324Z,17.07
2023-01-13T19:20:29.931Z,10.70
2023-01-13T19:22:57.862Z,19.43
2023-01-13T19:25:25.364Z,14.97
2023-01-13T19:27:53.623Z,12.00
2023-01-13T19:30:22.411Z,13.90
2023-01-13T19:32:54.251Z,10.33
2023-01-13T19:35:22.407Z,13.77
2023-01-13T19:37:53.595Z,11.70
2023-01-13T19:40:31.251Z,13.87
2023-01-13T19:43:20.000Z,12.60
2023-01-13T19:45:48.387Z,13.20
2023-01-13T19:48:17.094Z,9.47
2023-01-13T19:50:52.723Z,15.03
2023-01-13T19:53:22.037Z,8.53
2023-01-13T19:55:50.307Z,9.90
2023-01-13T19:58:20.139Z,8.60
2023-01-13T20:00:54.503Z,11.10
2023-01-13T20:03:24.744Z,14.82
2023-01-13T20:05:53.028Z,9.33
2023-01-13T20:08:33.076Z,13.13
2023-01-13T20:11:20.677Z,10.20
2023-01-13T20:13:52.460Z,12.00
2023-01-13T20:16:33.965Z,11.83
2023-01-13T20:19:02.161Z,7.80
2023-01-13T20:21:30.496Z,13.57
2023-01-13T20:23:57.891Z,8.80
2023-01-13T20:26:32.999Z,11.70
2023-01-13T20:29:01.080Z,12.25
2023-01-13T20:31:28.778Z,11.47
2023-01-13T20:33:58.063Z,9.10
2023-01-13T20:36:31.706Z,14.63
2023-01-13T20:39:01.836Z,10.37
2023-01-13T20:41:49.790Z,10.50
2023-01-13T20:44:17.679Z,9.73
2023-01-13T20:46:53.461Z,15.97
2023-01-13T20:49:22.203Z,11.83
2023-01-13T20:51:51.190Z,11.80
2023-01-13T20:54:19.278Z,12.77
2023-01-13T20:56:47.044Z,13.47
2023-01-13T20:59:15.463Z,10.50
2023-01-13T21:01:43.533Z,12.43
2023-01-13T21:04:11.205Z,9.30
2023-01-13T21:06:41.434Z,12.33
2023-01-13T21:09:10.264Z,9.00
2023-01-13T21:12:00.749Z,11.13
2023-01-13T21:14:53.535Z,14.17
2023-01-13T21:17:41.848Z,15.77
2023-01-13T21:20:11.280Z,9.77
2023-01-13T21:22:39.669Z,8.60
2023-01-13T21:25:08.736Z,9.80
2023-01-13T21:27:36.413Z,13.03
2023-01-13T21:30:04.605Z,12.47
2023-01-13T21:32:38.688Z,15.00
2023-01-13T21:35:09.104Z,8.43
2023-01-13T21:37:38.665Z,10.93
2023-01-13T21:40:07.034Z,13.13
2023-01-13T21:42:55.550Z,10.30
2023-01-13T21:45:42.926Z,11.80
2023-01-13T21:48:10.986Z,9.40
2023-01-13T21:50:49.834Z,12.23
2023-01-13T21:57:03.252Z,9.85
2023-01-13T22:02:45.898Z,9.77
2023-01-13T22:05:32.049Z,8.10
2023-01-13T22:08:00.270Z,9.07
2023-01-13T22:10:30.254Z,10.20
2023-01-13T22:12:58.821Z,10.13
2023-01-13T22:15:28.146Z,8.10
2023-01-13T22:17:56.560Z,11.43
2023-01-13T22:20:23.983Z,11.37
2023-01-13T22:22:51.367Z,9.40
2023-01-13T22:25:20.291Z,12.63
2023-01-13T22:27:48.490Z,11.10
2023-01-13T22:30:18.227Z,9.03
2023-01-13T22:32:45.929Z,10.53
2023-01-13T22:35:13.757Z,8.70
2023-01-13T22:37:41.382Z,13.03
2023-01-13T22:40:10.030Z,9.33
2023-01-13T22:42:38.336Z,9.63
2023-01-13T22:45:06.633Z,9.47
2023-01-13T22:47:34.266Z,10.80
2023-01-13T22:50:01.664Z,7.30
2023-01-13T22:52:29.219Z,12.47
2023-01-13T22:54:56.659Z,6.03
2023-01-13T22:57:24.205Z,10.80
2023-01-13T22:59:51.735Z,8.67
2023-01-13T23:02:19.119Z,10.93
2023-01-13T23:04:46.540Z,10.13
2023-01-13T23:07:14.019Z,8.27
2023-01-13T23:09:41.407Z,14.50
2023-01-13T23:12:08.819Z,8.37
2023-01-13T23:14:36.573Z,6.30
2023-01-13T23:17:04.638Z,9.73
2023-01-13T23:19:32.554Z,9.33
2023-01-13T23:22:00.019Z,10.97
2023-01-13T23:24:29.343Z,9.47
2023-01-13T23:26:56.887Z,8.53
2023-01-13T23:29:24.855Z,6.33
2023-01-13T23:31:52.327Z,6.43
2023-01-13T23:34:19.716Z,11.33
2023-01-13T23:36:47.103Z,9.70
2023-01-13T23:39:14.470Z,8.23
2023-01-13T23:41:41.841Z,6.40
2023-01-13T23:44:09.824Z,8.00
2023-01-13T23:46:37.241Z,11.23
2023-01-13T23:49:04.770Z,9.37
2023-01-13T23:51:32.583Z,9.17
2023-01-13T23:54:00.155Z,9.13
2023-01-13T23:56:29.151Z,6.90
2023-01-13T23:58:56.560Z,7.07
